createdAt,value
2023-01-07T00:01:40.111Z,21.60
2023-01-07T00:04:08.880Z,22.55
2023-01-07T00:06:38.106Z,23.17
2023-01-07T00:09:07.039Z,23.50
2023-01-07T00:11:37.061Z,22.30
2023-01-07T00:14:06.949Z,23.40
2023-01-07T00:16:35.890Z,22.42
2023-01-07T00:19:05.510Z,22.70
2023-01-07T00:21:33.672Z,22.17
2023-01-07T00:24:03.435Z,22.63
2023-01-07T00:26:33.170Z,22.52
2023-01-07T00:29:00.497Z,22.35
2023-01-07T00:31:32.919Z,21.35
2023-01-07T00:34:00.320Z,21.88
2023-01-07T00:36:30.820Z,22.88
2023-01-07T00:38:59.938Z,21.95
2023-01-07T00:41:27.453Z,21.70
2023-01-07T00:43:55.021Z,21.70
2023-01-07T00:46:22.406Z,22.00
2023-01-07T00:48:49.595Z,20.75
2023-01-07T00:51:18.313Z,21.20
2023-01-07T00:53:45.317Z,20.58
2023-01-07T00:56:15.021Z,21.23
2023-01-07T00:58:42.352Z,20.42
2023-01-07T01:01:10.547Z,23.05
2023-01-07T01:03:37.621Z,25.98
2023-01-07T01:06:15.073Z,21.83
2023-01-07T01:08:44.270Z,21.42
2023-01-07T01:11:12.854Z,21.42
2023-01-07T01:13:40.433Z,23.52
2023-01-07T01:16:09.753Z,21.42
2023-01-07T01:18:37.320Z,22.70
2023-01-07T01:21:06.835Z,21.35
2023-01-07T01:23:34.057Z,20.23
2023-01-07T01:26:15.455Z,21.67
2023-01-07T01:28:43.975Z,20.13
2023-01-07T01:31:11.655Z,20.52
2023-01-07T01:33:38.602Z,21.55
2023-01-07T01:36:08.188Z,20.33
2023-01-07T01:38:35.079Z,21.00
2023-01-07T01:41:01.971Z,21.08
2023-01-07T01:43:35.137Z,22.67
2023-01-07T01:46:12.648Z,21.05
2023-01-07T01:48:46.465Z,19.77
2023-01-07T01:51:15.643Z,20.63
2023-01-07T01:53:42.781Z,20.23
2023-01-07T01:56:12.971Z,20.02
2023-01-07T01:58:45.399Z,20.08
2023-01-07T02:01:13.627Z,20.90
2023-01-07T02:03:40.589Z,20.98
2023-01-07T02:06:14.542Z,21.30
2023-01-07T02:08:41.377Z,20.92
2023-01-07T02:11:20.475Z,21.05
2023-01-07T02:14:13.488Z,21.17
2023-01-07T02:16:58.769Z,20.35
2023-01-07T02:19:46.539Z,20.73
2023-01-07T02:22:21.951Z,20.90
2023-01-07T02:25:19.443Z,20.60
2023-01-07T02:28:15.193Z,21.25
2023-01-07T02:31:00.546Z,21.15
2023-01-07T02:33:40.995Z,22.42
2023-01-07T02:36:12.818Z,19.85
2023-01-07T02:39:14.860Z,20.33
2023-01-07T02:41:51.227Z,21.80
2023-01-07T02:44:56.484Z,22.90
2023-01-07T02:47:32.165Z,23.67
2023-01-07T02:49:59.036Z,24.40
2023-01-07T02:52:28.706Z,23.30
2023-01-07T02:55:24.884Z,25.08
2023-01-07T02:58:06.388Z,25.30
2023-01-07T03:00:49.011Z,26.52
2023-01-07T03:04:06.354Z,25.90
2023-01-07T03:06:53.853Z,27.10
2023-01-07T03:12:33.868Z,27.63
2023-01-07T03:15:13.947Z,26.75
2023-01-07T03:17:52.349Z,27.50
2023-01-07T03:20:22.707Z,29.63
2023-01-07T03:22:51.027Z,28.10
2023-01-07T03:25:21.700Z,27.58
2023-01-07T03:27:50.612Z,30.38
2023-01-07T03:30:18.947Z,29.08
2023-01-07T03:33:14.679Z,30.33
2023-01-07T03:35:45.599Z,29.40
2023-01-07T03:38:13.215Z,29.48
2023-01-07T03:40:40.155Z,29.00
2023-01-07T03:43:13.378Z,28.73
2023-01-07T03:45:41.650Z,28.75
2023-01-07T03:48:08.545Z,26.38
2023-01-07T03:50:35.585Z,27.60
2023-01-07T03:53:02.487Z,27.00
2023-01-07T03:55:29.291Z,26.27
2023-01-07T03:57:56.923Z,26.90
2023-01-07T04:00:24.343Z,25.23
2023-01-07T04:02:51.446Z,25.08
2023-01-07T04:05:18.357Z,24.10
2023-01-07T04:07:45.210Z,22.60
2023-01-07T04:10:12.053Z,21.77
2023-01-07T04:12:38.905Z,21.02
2023-01-07T04:15:06.522Z,18.75
2023-01-07T04:17:33.456Z,19.60
2023-01-07T04:20:00.282Z,18.98
2023-01-07T04:22:27.454Z,19.45
2023-01-07T04:24:54.284Z,20.02
2023-01-07T04:27:21.107Z,19.85
2023-01-07T04:29:48.034Z,19.13
2023-01-07T04:32:14.845Z,20.17
2023-01-07T04:34:41.659Z,20.50
2023-01-07T04:37:08.507Z,20.50
2023-01-07T04:39:35.307Z,20.52
2023-01-07T04:42:02.116Z,20.40
2023-01-07T04:44:28.942Z,22.17
2023-01-07T04:46:55.743Z,20.83
2023-01-07T04:49:22.610Z,21.30
2023-01-07T04:51:49.560Z,20.23
2023-01-07T04:54:16.369Z,21.00
2023-01-07T04:56:43.298Z,20.63
2023-01-07T04:59:10.205Z,20.33
2023-01-07T05:01:37.177Z,20.85
2023-01-07T05:04:04.406Z,20.10
2023-01-07T05:06:31.250Z,19.88
2023-01-07T05:08:58.275Z,20.02
2023-01-07T05:11:25.101Z,18.88
2023-01-07T05:13:52.385Z,17.70
2023-01-07T05:16:19.455Z,21.13
2023-01-07T05:18:46.435Z,19.20
2023-01-07T05:21:13.320Z,19.35
2023-01-07T05:23:40.248Z,21.05
2023-01-07T05:26:07.266Z,18.55
2023-01-07T05:28:34.770Z,19.85
2023-01-07T05:31:01.700Z,19.52
2023-01-07T05:33:28.940Z,19.25
2023-01-07T05:35:55.829Z,19.75
2023-01-07T05:38:22.731Z,18.98
2023-01-07T05:40:50.249Z,18.90
2023-01-07T05:43:17.787Z,19.48
2023-01-07T05:45:46.187Z,19.38
2023-01-07T05:48:14.335Z,20.40
2023-01-07T05:50:41.838Z,19.77
2023-01-07T05:53:10.040Z,18.95
2023-01-07T05:55:38.768Z,19.30
2023-01-07T05:58:07.241Z,17.77
2023-01-07T06:00:35.278Z,17.95
2023-01-07T06:03:02.215Z,18.90
2023-01-07T06:05:29.177Z,17.17
2023-01-07T06:07:56.070Z,18.02
2023-01-07T06:10:23.027Z,16.40
2023-01-07T06:12:51.457Z,17.65
2023-01-07T06:15:18.793Z,17.88
2023-01-07T06:17:45.665Z,16.58
2023-01-07T06:20:15.042Z,15.45
2023-01-07T06:22:43.187Z,16.77
2023-01-07T06:25:11.472Z,16.30
2023-01-07T06:27:40.818Z,17.20
2023-01-07T06:30:11.851Z,15.50
2023-01-07T06:32:40.475Z,17.42
2023-01-07T06:35:09.590Z,17.92
2023-01-07T06:37:36.415Z,16.00
2023-01-07T06:40:04.021Z,17.35
2023-01-07T06:42:30.836Z,18.63
2023-01-07T06:44:57.653Z,17.30
2023-01-07T06:47:25.722Z,17.95
2023-01-07T06:49:52.959Z,19.83
2023-01-07T06:52:19.883Z,21.13
2023-01-07T06:54:48.512Z,19.02
2023-01-07T06:57:15.564Z,19.02
2023-01-07T06:59:42.448Z,17.25
2023-01-07T07:02:21.118Z,23.58
2023-01-07T07:04:47.995Z,18.38
2023-01-07T07:07:16.128Z,17.35
2023-01-07T07:09:43.535Z,20.50
2023-01-07T07:12:10.482Z,18.20
2023-01-07T07:14:37.358Z,18.63
2023-01-07T07:17:04.859Z,19.13
2023-01-07T07:19:31.724Z,17.15
2023-01-07T07:21:58.706Z,18.33
2023-01-07T07:24:25.648Z,18.30
2023-01-07T07:26:52.877Z,17.27
2023-01-07T07:29:21.644Z,17.38
2023-01-07T07:31:48.749Z,18.55
2023-01-07T07:34:15.643Z,20.00
2023-01-07T07:36:42.587Z,20.52
2023-01-07T07:39:10.823Z,17.55
2023-01-07T07:41:37.627Z,18.75
2023-01-07T07:44:04.571Z,21.27
2023-01-07T07:46:32.138Z,21.15
2023-01-07T07:48:59.069Z,20.38
2023-01-07T07:51:25.951Z,20.05
2023-01-07T07:53:52.872Z,19.77
2023-01-07T07:56:19.737Z,21.40
2023-01-07T07:58:46.541Z,21.88
2023-01-07T08:01:13.485Z,19.67
2023-01-07T08:03:40.416Z,19.95
2023-01-07T08:06:07.392Z,18.63
2023-01-07T08:08:34.226Z,22.77
2023-01-07T08:11:02.697Z,20.98
2023-01-07T08:13:30.479Z,25.02
2023-01-07T08:15:58.240Z,24.65
2023-01-07T08:18:25.350Z,23.85
2023-01-07T08:20:52.245Z,25.60
2023-01-07T08:23:19.123Z,27.92
2023-01-07T08:25:46.062Z,28.65
2023-01-07T08:28:13.083Z,28.38
2023-01-07T08:30:40.017Z,29.08
2023-01-07T08:33:08.210Z,28.58
2023-01-07T08:35:35.300Z,28.23
2023-01-07T08:38:11.013Z,27.02
2023-01-07T08:40:38.672Z,26.55
2023-01-07T08:43:07.278Z,24.95
2023-01-07T08:45:34.916Z,24.58
2023-01-07T08:48:01.877Z,22.40
2023-01-07T08:50:30.738Z,25.27
2023-01-07T08:52:58.272Z,24.10
2023-01-07T08:55:25.679Z,22.23
2023-01-07T08:57:53.226Z,21.65
2023-01-07T09:00:20.418Z,20.83
2023-01-07T09:02:47.347Z,20.67
2023-01-07T09:05:14.475Z,21.35
2023-01-07T09:07:41.374Z,17.90
2023-01-07T09:10:10.069Z,19.63
2023-01-07T09:12:37.269Z,17.75
2023-01-07T09:15:04.731Z,16.70
2023-01-07T09:17:31.530Z,19.08
2023-01-07T09:19:58.849Z,18.92
2023-01-07T09:22:25.733Z,20.52
2023-01-07T09:24:52.551Z,20.65
2023-01-07T09:27:19.396Z,19.80
2023-01-07T09:29:46.328Z,20.25
2023-01-07T09:32:13.191Z,19.08
2023-01-07T09:34:40.194Z,19.90
2023-01-07T09:37:07.630Z,19.15
2023-01-07T09:39:34.485Z,20.08
2023-01-07T09:42:33.760Z,19.40
2023-01-07T09:45:17.111Z,20.05
2023-01-07T09:47:47.358Z,20.90
2023-01-07T09:50:25.976Z,20.48
2023-01-07T09:52:56.626Z,29.25
2023-01-07T09:55:34.905Z,21.02
2023-01-07T09:58:02.070Z,19.70
2023-01-07T10:00:31.183Z,21.08
2023-01-07T10:03:12.878Z,19.48
2023-01-07T10:06:15.229Z,20.83
2023-01-07T10:08:54.143Z,20.00
2023-01-07T10:11:32.481Z,18.77
2023-01-07T10:14:17.476Z,20.52
2023-01-07T10:16:57.147Z,22.15
2023-01-07T10:19:35.876Z,22.40
2023-01-07T10:22:25.279Z,22.92
2023-01-07T10:24:59.118Z,22.23
2023-01-07T10:27:35.410Z,19.15
2023-01-07T10:30:11.255Z,23.17
2023-01-07T10:32:38.569Z,22.90
2023-01-07T10:35:13.559Z,22.15
2023-01-07T10:37:42.411Z,22.05
2023-01-07T10:40:38.582Z,22.48
2023-01-07T10:43:14.422Z,22.27
2023-01-07T10:45:59.262Z,23.33
2023-01-07T10:48:26.076Z,24.05
2023-01-07T10:51:07.147Z,22.48
2023-01-07T10:53:55.782Z,21.90
2023-01-07T10:56:36.660Z,22.45
2023-01-07T10:59:04.036Z,22.48
2023-01-07T11:01:41.123Z,23.92
2023-01-07T11:04:15.173Z,22.52
2023-01-07T11:06:49.940Z,22.88
2023-01-07T11:09:37.172Z,21.95
2023-01-07T11:12:34.293Z,24.85
2023-01-07T11:15:05.625Z,22.58
2023-01-07T11:17:39.358Z,22.40
2023-01-07T11:20:07.008Z,21.30
2023-01-07T11:22:36.761Z,20.27
2023-01-07T11:25:27.720Z,20.38
2023-01-07T11:27:58.773Z,27.73
2023-01-07T11:30:28.462Z,21.13
2023-01-07T11:33:07.012Z,20.80
2023-01-07T11:35:34.063Z,21.10
2023-01-07T11:38:00.892Z,21.55
2023-01-07T11:40:30.698Z,62.95
2023-01-07T11:43:20.364Z,20.23
2023-01-07T11:46:19.104Z,27.33
2023-01-07T11:49:01.101Z,18.83
2023-01-07T11:51:40.077Z,20.65
2023-01-07T11:54:22.444Z,20.90
2023-01-07T11:56:49.638Z,20.85
2023-01-07T11:59:27.008Z,21.55
2023-01-07T12:01:59.744Z,23.23
2023-01-07T12:04:31.587Z,23.67
2023-01-07T12:07:02.513Z,26.52
2023-01-07T12:09:32.048Z,26.77
2023-01-07T12:12:07.447Z,111.25
2023-01-07T12:14:38.365Z,28.48
2023-01-07T12:17:16.068Z,26.52
2023-01-07T12:19:54.763Z,25.55
2023-01-07T12:22:21.555Z,26.92
2023-01-07T12:24:57.414Z,28.25
2023-01-07T12:27:39.611Z,28.27
2023-01-07T12:30:30.352Z,26.38
2023-01-07T12:33:09.289Z,29.80
2023-01-07T12:35:40.331Z,25.85
2023-01-07T12:38:30.272Z,38.13
2023-01-07T12:41:01.844Z,28.17
2023-01-07T12:43:32.681Z,25.90
2023-01-07T12:46:02.763Z,25.60
2023-01-07T12:48:35.884Z,26.80
2023-01-07T12:53:36.764Z,25.42
2023-01-07T12:56:11.535Z,28.03
2023-01-07T12:58:52.068Z,25.95
2023-01-07T13:01:28.231Z,27.27
2023-01-07T13:04:25.989Z,29.10
2023-01-07T13:07:05.689Z,27.38
2023-01-07T13:09:43.075Z,27.85
2023-01-07T13:12:42.541Z,29.67
2023-01-07T13:15:15.374Z,25.98
2023-01-07T13:17:43.419Z,32.83
2023-01-07T13:20:15.424Z,24.15
2023-01-07T13:22:45.416Z,26.10
2023-01-07T13:25:20.867Z,25.63
2023-01-07T13:28:07.490Z,30.52
2023-01-07T13:30:52.903Z,26.92
2023-01-07T13:33:37.227Z,32.75
2023-01-07T13:36:31.061Z,31.50
2023-01-07T13:39:04.104Z,29.35
2023-01-07T13:42:06.536Z,29.90
2023-01-07T13:45:02.027Z,30.25
2023-01-07T13:47:53.585Z,35.92
2023-01-07T13:50:37.492Z,35.03
2023-01-07T13:53:27.377Z,39.13
2023-01-07T13:56:16.638Z,36.70
2023-01-07T13:58:56.130Z,47.10
2023-01-07T14:01:32.922Z,40.83
2023-01-07T14:04:19.735Z,41.25
2023-01-07T14:06:52.130Z,41.85
2023-01-07T14:09:25.325Z,56.63
2023-01-07T14:12:03.872Z,43.20
2023-01-07T14:14:38.325Z,43.90
2023-01-07T14:17:50.738Z,41.25
2023-01-07T14:20:50.270Z,41.97
2023-01-07T14:23:35.887Z,44.90
2023-01-07T14:26:27.713Z,47.78
2023-01-07T14:29:12.082Z,43.42
2023-01-07T14:31:39.089Z,47.53
2023-01-07T14:34:26.880Z,43.47
2023-01-07T14:37:06.604Z,40.25
2023-01-07T14:39:44.816Z,46.85
2023-01-07T14:42:20.588Z,46.25
2023-01-07T14:44:49.249Z,41.78
2023-01-07T14:47:45.630Z,42.53
2023-01-07T14:50:34.575Z,41.80
2023-01-07T14:53:05.801Z,46.92
2023-01-07T14:55:49.759Z,44.40
2023-01-07T14:58:45.770Z,43.72
2023-01-07T15:02:00.557Z,45.67
2023-01-07T15:04:46.403Z,45.80
2023-01-07T15:07:20.829Z,46.60
2023-01-07T15:10:36.158Z,47.05
2023-01-07T15:13:22.846Z,51.72
2023-01-07T15:16:02.120Z,50.88
2023-01-07T15:18:31.334Z,50.83
2023-01-07T15:21:23.255Z,56.83
2023-01-07T15:24:17.447Z,48.13
2023-01-07T15:26:46.828Z,50.20
2023-01-07T15:29:31.234Z,52.42
2023-01-07T15:32:25.954Z,55.92
2023-01-07T15:34:52.864Z,54.50
2023-01-07T15:37:20.301Z,56.00
2023-01-07T15:39:52.175Z,46.83
2023-01-07T15:42:24.903Z,47.47
2023-01-07T15:44:57.475Z,45.45
2023-01-07T15:47:36.906Z,50.97
2023-01-07T15:50:19.256Z,50.65
2023-01-07T15:52:53.412Z,52.65
2023-01-07T15:55:45.326Z,54.15
2023-01-07T15:58:32.454Z,53.22
2023-01-07T16:01:00.842Z,54.38
2023-01-07T16:03:28.900Z,52.55
2023-01-07T16:05:56.379Z,54.53
2023-01-07T16:08:30.878Z,51.30
2023-01-07T16:11:06.626Z,53.58
2023-01-07T16:13:36.943Z,55.42
2023-01-07T16:16:06.020Z,51.88
2023-01-07T16:18:33.003Z,52.90
2023-01-07T16:21:07.515Z,51.17
2023-01-07T16:23:36.937Z,51.30
2023-01-07T16:26:05.932Z,51.22
2023-01-07T16:28:48.983Z,52.50
2023-01-07T16:31:18.966Z,53.90
2023-01-07T16:33:47.354Z,54.67
2023-01-07T16:36:20.442Z,52.75
2023-01-07T16:41:25.880Z,53.65
2023-01-07T16:44:00.156Z,50.55
2023-01-07T16:46:28.130Z,52.95
2023-01-07T16:49:19.951Z,53.47
2023-01-07T16:51:52.861Z,52.08
2023-01-07T16:54:25.694Z,55.22
2023-01-07T16:56:58.055Z,53.53
2023-01-07T16:59:34.553Z,50.92
2023-01-07T17:02:30.986Z,50.42
2023-01-07T17:05:17.567Z,51.22
2023-01-07T17:07:49.100Z,50.90
2023-01-07T17:10:30.908Z,51.97
2023-01-07T17:13:13.719Z,53.72
2023-01-07T17:15:42.471Z,50.33
2023-01-07T17:18:12.372Z,53.45
2023-01-07T17:20:44.728Z,50.55
2023-01-07T17:23:26.971Z,53.30
2023-01-07T17:26:04.671Z,53.60
2023-01-07T17:28:34.517Z,54.25
2023-01-07T17:31:01.859Z,54.40
2023-01-07T17:33:29.540Z,56.20
2023-01-07T17:35:59.284Z,53.78
2023-01-07T17:38:26.096Z,64.72
2023-01-07T17:40:54.680Z,56.00
2023-01-07T17:43:35.035Z,56.60
2023-01-07T17:46:03.970Z,51.90
2023-01-07T17:48:32.422Z,51.60
2023-01-07T17:51:10.098Z,48.47
2023-01-07T17:53:43.752Z,48.47
2023-01-07T17:56:10.900Z,47.17
2023-01-07T17:58:41.073Z,47.58
2023-01-07T18:01:10.639Z,43.67
2023-01-07T18:03:37.705Z,42.58
2023-01-07T18:06:14.815Z,43.78
2023-01-07T18:08:41.666Z,45.50
2023-01-07T18:11:30.847Z,46.35
2023-01-07T18:14:00.310Z,49.40
2023-01-07T18:16:27.747Z,45.78
2023-01-07T18:18:54.742Z,46.33
2023-01-07T18:21:21.628Z,44.10
2023-01-07T18:23:48.671Z,46.22
2023-01-07T18:26:16.520Z,45.85
2023-01-07T18:28:43.797Z,47.75
2023-01-07T18:31:10.895Z,47.20
2023-01-07T18:33:38.473Z,51.38
2023-01-07T18:36:05.642Z,46.38
2023-01-07T18:38:32.647Z,48.38
2023-01-07T18:40:59.713Z,46.25
2023-01-07T18:43:26.539Z,48.92
2023-01-07T18:45:53.425Z,47.85
2023-01-07T18:48:21.159Z,46.72
2023-01-07T18:50:49.538Z,46.17
2023-01-07T18:53:18.351Z,47.15
2023-01-07T18:55:46.671Z,45.15
2023-01-07T18:58:15.251Z,47.75
2023-01-07T19:00:42.531Z,47.05
2023-01-07T19:03:10.768Z,42.83
2023-01-07T19:05:39.258Z,46.25
2023-01-07T19:08:06.188Z,42.00
2023-01-07T19:10:33.104Z,45.53
2023-01-07T19:13:00.564Z,42.13
2023-01-07T19:15:27.417Z,44.83
2023-01-07T19:17:54.267Z,41.28
2023-01-07T19:20:21.113Z,41.00
2023-01-07T19:22:47.956Z,42.50
2023-01-07T19:25:14.915Z,36.45
2023-01-07T19:27:41.745Z,39.25
2023-01-07T19:30:09.336Z,35.97
2023-01-07T19:32:36.264Z,38.20
2023-01-07T19:35:03.213Z,38.67
2023-01-07T19:37:30.041Z,39.03
2023-01-07T19:39:57.077Z,38.13
2023-01-07T19:42:24.230Z,37.28
2023-01-07T19:44:51.064Z,35.97
2023-01-07T19:47:17.919Z,39.17
2023-01-07T19:49:45.423Z,37.47
2023-01-07T19:52:13.593Z,38.65
2023-01-07T19:54:41.206Z,36.88
2023-01-07T19:57:08.170Z,37.13
2023-01-07T19:59:35.118Z,36.75
2023-01-07T20:02:03.209Z,34.20
2023-01-07T20:04:30.348Z,34.15
2023-01-07T20:06:57.175Z,35.78
2023-01-07T20:09:24.041Z,31.73
2023-01-07T20:11:54.005Z,29.65
2023-01-07T20:14:20.861Z,34.85
2023-01-07T20:16:47.893Z,36.75
2023-01-07T20:19:14.803Z,35.28
2023-01-07T20:21:41.784Z,36.47
2023-01-07T20:24:09.702Z,33.22
2023-01-07T20:26:38.230Z,32.63
2023-01-07T20:29:05.406Z,34.55
2023-01-07T20:31:32.655Z,30.90
2023-01-07T20:34:00.191Z,36.35
2023-01-07T20:36:29.850Z,32.90
2023-01-07T20:38:56.751Z,32.35
2023-01-07T20:41:26.666Z,34.75
2023-01-07T20:43:58.865Z,35.40
2023-01-07T20:46:27.260Z,37.60
2023-01-07T20:48:54.832Z,33.30
2023-01-07T20:51:22.020Z,36.55
2023-01-07T20:53:48.942Z,31.48
2023-01-07T20:56:18.945Z,32.72
2023-01-07T20:58:46.746Z,31.58
2023-01-07T21:01:16.395Z,33.30
2023-01-07T21:03:43.555Z,34.25
2023-01-07T21:06:13.430Z,33.63
2023-01-07T21:08:40.642Z,34.63
2023-01-07T21:11:19.363Z,35.75
2023-01-07T21:13:47.516Z,33.90
2023-01-07T21:16:14.790Z,35.03
2023-01-07T21:18:41.855Z,36.08
2023-01-07T21:21:19.163Z,33.95
2023-01-07T21:23:49.687Z,32.70
2023-01-07T21:26:16.945Z,28.08
2023-01-07T21:28:44.347Z,32.50
2023-01-07T21:31:15.648Z,31.38
2023-01-07T21:33:43.194Z,32.13
2023-01-07T21:36:15.874Z,33.70
2023-01-07T21:38:43.302Z,32.25
2023-01-07T21:41:15.920Z,18.98
2023-01-07T21:43:43.586Z,30.10
2023-01-07T21:46:11.214Z,33.60
2023-01-07T21:48:40.241Z,33.65
2023-01-07T21:51:10.780Z,32.38
2023-01-07T21:53:37.707Z,31.23
2023-01-07T21:56:09.371Z,158.07
2023-01-07T21:58:37.666Z,34.42
2023-01-07T22:01:08.420Z,33.15
2023-01-07T22:03:37.319Z,32.88
2023-01-07T22:06:13.389Z,31.50
2023-01-07T22:08:40.235Z,31.58
2023-01-07T22:11:07.437Z,29.52
2023-01-07T22:13:34.230Z,33.38
2023-01-07T22:16:04.364Z,29.17
2023-01-07T22:18:31.473Z,26.13
2023-01-07T22:20:58.366Z,27.25
2023-01-07T22:23:25.274Z,25.48
2023-01-07T22:25:52.253Z,25.38
2023-01-07T22:28:21.907Z,23.92
2023-01-07T22:30:57.654Z,20.90
2023-01-07T22:33:24.457Z,22.05
2023-01-07T22:35:51.858Z,21.35
2023-01-07T22:38:22.271Z,19.98
2023-01-07T22:40:49.426Z,19.50
2023-01-07T22:43:18.936Z,20.30
2023-01-07T22:45:58.001Z,18.15
2023-01-07T22:48:27.414Z,18.20
2023-01-07T22:50:59.553Z,18.30
2023-01-07T22:53:27.983Z,18.65
2023-01-07T22:55:54.802Z,18.95
2023-01-07T22:58:21.654Z,17.98
2023-01-07T23:00:51.760Z,21.10
2023-01-07T23:03:23.174Z,15.88
2023-01-07T23:05:50.946Z,18.23
2023-01-07T23:08:18.242Z,19.08
2023-01-07T23:10:45.567Z,17.08
2023-01-07T23:13:12.867Z,16.80
2023-01-07T23:15:40.213Z,18.92
2023-01-07T23:18:08.940Z,21.13
2023-01-07T23:20:40.043Z,16.75
2023-01-07T23:23:07.734Z,17.73
2023-01-07T23:25:35.659Z,16.73
2023-01-07T23:28:03.740Z,17.45
2023-01-07T23:30:30.581Z,17.70
2023-01-07T23:32:57.490Z,17.10
2023-01-07T23:35:24.310Z,16.60
2023-01-07T23:37:51.117Z,79.50
2023-01-07T23:40:18.860Z,20.27
2023-01-07T23:42:46.363Z,15.05
2023-01-07T23:45:13.171Z,16.45
2023-01-07T23:47:40.044Z,16.35
2023-01-07T23:50:07.507Z,14.70
2023-01-07T23:52:34.451Z,15.30
2023-01-07T23:55:01.308Z,15.13
2023-01-07T23:57:28.660Z,10.73
2023-01-07T23:59:55.532Z,15.93
